createdAt,value
2023-04-02T00:00:03.887Z,100872.97
2023-04-02T00:02:56.463Z,100876.22
2023-04-02T00:05:31.436Z,100882.75
2023-04-02T00:08:03.807Z,100892.56
2023-04-02T00:10:32.771Z,100887.78
2023-04-02T00:13:05.135Z,100886.44
2023-04-02T00:15:32.577Z,100890.56
2023-04-02T00:18:00.657Z,100899.88
2023-04-02T00:20:30.033Z,100899.75
2023-04-02T00:22:57.086Z,100906.91
2023-04-02T00:25:27.034Z,100900.53
2023-04-02T00:27:54.584Z,100910.91
2023-04-02T00:30:21.858Z,100914.53
2023-04-02T00:32:49.368Z,100917.44
2023-04-02T00:35:28.449Z,100917.59
2023-04-02T00:37:56.504Z,100928.13
2023-04-02T00:40:29.329Z,100930.97
2023-04-02T00:42:59.779Z,100940.50
2023-04-02T00:45:30.947Z,100945.09
2023-04-02T00:48:01.166Z,100944.88
2023-04-02T00:50:34.999Z,100940.81
2023-04-02T00:53:10.577Z,100944.59
2023-04-02T00:55:40.438Z,100957.78
2023-04-02T00:58:22.203Z,100961.97
2023-04-02T01:00:50.844Z,100962.75
2023-04-02T01:03:17.539Z,100975.38
2023-04-02T01:05:51.315Z,100961.63
2023-04-02T01:08:31.289Z,100970.25
2023-04-02T01:11:17.011Z,100970.25
2023-04-02T01:13:56.973Z,100979.53
2023-04-02T01:16:27.293Z,100977.25
2023-04-02T01:19:10.020Z,100977.03
2023-04-02T01:21:46.079Z,100988.78
2023-04-02T01:24:14.555Z,100994.34
2023-04-02T01:26:58.741Z,101003.06
2023-04-02T01:29:45.496Z,101008.53
2023-04-02T01:32:15.581Z,101009.72
2023-04-02T01:34:45.783Z,101013.66
2023-04-02T01:37:32.357Z,101026.50
2023-04-02T01:40:31.215Z,101030.69
2023-04-02T01:43:28.447Z,101027.75
2023-04-02T01:45:58.623Z,101037.66
2023-04-02T01:48:30.146Z,101042.38
2023-04-02T01:50:59.387Z,101041.47
2023-04-02T01:53:29.681Z,101052.94
2023-04-02T01:56:01.924Z,101059.31
2023-04-02T01:58:32.060Z,101059.66
2023-04-02T02:01:19.238Z,101053.34
2023-04-02T02:03:50.825Z,101065.66
2023-04-02T02:06:19.683Z,101064.13
2023-04-02T02:09:03.901Z,101079.31
2023-04-02T02:11:33.849Z,101072.31
2023-04-02T02:14:05.554Z,101076.06
2023-04-02T02:16:41.749Z,101091.78
2023-04-02T02:19:17.385Z,101077.53
2023-04-02T02:21:48.824Z,101084.50
2023-04-02T02:24:31.665Z,101098.78
2023-04-02T02:27:21.912Z,101105.16
2023-04-02T02:30:02.003Z,101099.09
2023-04-02T02:32:32.810Z,101118.03
2023-04-02T02:35:12.783Z,101121.66
2023-04-02T02:37:44.926Z,101124.50
2023-04-02T02:40:24.173Z,101123.75
2023-04-02T02:43:08.659Z,101128.09
2023-04-02T02:45:38.914Z,101133.72
2023-04-02T02:48:12.817Z,101134.97
2023-04-02T02:50:41.248Z,101145.75
2023-04-02T02:53:21.377Z,101149.72
2023-04-02T02:55:54.272Z,101146.72
2023-04-02T02:58:27.956Z,101153.63
2023-04-02T03:01:05.259Z,101160.25
2023-04-02T03:03:35.164Z,101157.22
2023-04-02T03:06:09.135Z,101165.59
2023-04-02T03:09:09.453Z,101174.66
2023-04-02T03:11:49.723Z,101177.19
2023-04-02T03:14:35.524Z,101193.81
2023-04-02T03:17:27.913Z,101199.88
2023-04-02T03:20:11.036Z,101202.94
2023-04-02T03:22:47.326Z,101212.31
2023-04-02T03:25:17.174Z,101218.34
2023-04-02T03:27:47.431Z,101223.81
2023-04-02T03:30:34.768Z,101231.28
2023-04-02T03:33:13.711Z,101242.91
2023-04-02T03:35:47.198Z,101246.13
2023-04-02T03:38:20.641Z,101251.56
2023-04-02T03:41:02.186Z,101252.84
2023-04-02T03:43:42.338Z,101255.66
2023-04-02T03:46:34.201Z,101260.59
2023-04-02T03:49:11.466Z,101262.66
2023-04-02T03:51:47.098Z,101264.66
2023-04-02T03:54:16.776Z,101274.97
2023-04-02T03:56:47.492Z,101266.09
2023-04-02T03:59:31.977Z,101291.06
2023-04-02T04:02:33.694Z,101284.81
2023-04-02T04:05:03.581Z,101281.41
2023-04-02T04:07:41.538Z,101298.59
2023-04-02T04:10:17.097Z,101314.25
2023-04-02T04:12:47.784Z,101323.25
2023-04-02T04:15:33.468Z,101316.22
2023-04-02T04:18:21.589Z,101334.66
2023-04-02T04:20:58.420Z,101342.94
2023-04-02T04:23:41.182Z,101344.91
2023-04-02T04:26:36.244Z,101343.03
2023-04-02T04:29:33.160Z,101357.00
2023-04-02T04:32:34.148Z,101358.22
2023-04-02T04:35:26.700Z,101363.47
2023-04-02T04:38:12.113Z,101372.44
2023-04-02T04:40:54.351Z,101371.88
2023-04-02T04:43:51.041Z,101365.00
2023-04-02T04:46:28.660Z,101378.97
2023-04-02T04:49:09.964Z,101382.59
2023-04-02T04:52:01.830Z,101390.34
2023-04-02T04:54:29.933Z,101400.59
2023-04-02T04:57:03.127Z,101410.09
2023-04-02T04:59:43.049Z,101405.53
2023-04-02T05:02:16.526Z,101411.66
2023-04-02T05:04:50.114Z,101419.97
2023-04-02T05:07:26.438Z,101412.19
2023-04-02T05:10:00.787Z,101421.31
2023-04-02T05:12:38.341Z,101427.19
2023-04-02T05:15:27.911Z,101431.53
2023-04-02T05:18:21.198Z,101441.09
2023-04-02T05:20:54.705Z,101455.22
2023-04-02T05:23:28.120Z,101449.91
2023-04-02T05:26:06.931Z,101454.53
2023-04-02T05:28:39.268Z,101456.69
2023-04-02T05:31:15.058Z,101460.19
2023-04-02T05:33:46.434Z,101466.38
2023-04-02T05:36:22.405Z,101470.75
2023-04-02T05:38:54.548Z,101474.44
2023-04-02T05:41:32.712Z,101479.22
2023-04-02T05:44:08.183Z,101489.63
2023-04-02T05:46:43.545Z,101492.53
2023-04-02T05:49:21.538Z,101501.09
2023-04-02T05:51:52.559Z,101503.81
2023-04-02T05:54:27.116Z,101502.31
2023-04-02T05:57:03.029Z,101515.41
2023-04-02T05:59:34.286Z,101518.00
2023-04-02T06:02:19.945Z,101514.97
2023-04-02T06:04:55.640Z,101528.44
2023-04-02T06:07:33.163Z,101527.28
2023-04-02T06:10:00.647Z,101539.09
2023-04-02T06:12:30.882Z,101551.47
2023-04-02T06:15:00.193Z,101547.44
2023-04-02T06:17:30.631Z,101564.31
2023-04-02T06:20:01.213Z,101572.31
2023-04-02T06:22:39.572Z,101571.00
2023-04-02T06:25:28.005Z,101581.00
2023-04-02T06:27:58.541Z,101572.69
2023-04-02T06:30:33.246Z,101589.72
2023-04-02T06:33:01.238Z,101589.34
2023-04-02T06:35:29.354Z,101590.97
2023-04-02T06:38:03.546Z,101599.56
2023-04-02T06:40:51.459Z,101610.53
2023-04-02T06:44:06.257Z,101618.25
2023-04-02T06:47:20.689Z,101623.59
2023-04-02T06:49:56.859Z,101627.81
2023-04-02T06:52:24.660Z,101638.72
2023-04-02T06:54:51.602Z,101631.22
2023-04-02T06:57:18.361Z,101643.84
2023-04-02T06:59:47.829Z,101642.25
2023-04-02T07:02:30.899Z,101655.09
2023-04-02T07:05:04.142Z,101659.78
2023-04-02T07:07:32.755Z,101666.31
2023-04-02T07:10:03.038Z,101676.06
2023-04-02T07:12:29.955Z,101680.44
2023-04-02T07:14:56.822Z,101693.22
2023-04-02T07:17:24.259Z,101695.59
2023-04-02T07:19:50.994Z,101704.38
2023-04-02T07:22:20.808Z,101707.53
2023-04-02T07:24:54.290Z,101723.81
2023-04-02T07:27:20.985Z,101728.38
2023-04-02T07:29:47.760Z,101727.91
2023-04-02T07:32:14.606Z,101718.59
2023-04-02T07:34:41.796Z,101732.09
2023-04-02T07:37:13.117Z,101731.09
2023-04-02T07:39:40.767Z,101744.31
2023-04-02T07:42:08.053Z,101743.81
2023-04-02T07:44:34.903Z,101752.06
2023-04-02T07:47:01.700Z,101755.56
2023-04-02T07:49:29.271Z,101764.31
2023-04-02T07:51:56.551Z,101767.63
2023-04-02T07:54:23.197Z,101770.63
2023-04-02T07:56:49.831Z,101766.44
2023-04-02T07:59:17.289Z,101770.50
2023-04-02T08:01:44.057Z,101770.16
2023-04-02T08:04:20.012Z,101784.03
2023-04-02T08:06:48.081Z,101782.53
2023-04-02T08:09:18.181Z,101782.78
2023-04-02T08:11:46.762Z,101788.91
2023-04-02T08:14:14.115Z,101802.38
2023-04-02T08:16:53.213Z,101805.53
2023-04-02T08:19:20.659Z,101797.50
2023-04-02T08:21:52.854Z,101822.25
2023-04-02T08:24:19.676Z,101812.34
2023-04-02T08:27:01.572Z,101829.59
2023-04-02T08:29:32.204Z,101828.50
2023-04-02T08:32:00.963Z,101835.25
2023-04-02T08:34:28.455Z,101834.44
2023-04-02T08:36:59.131Z,101841.81
2023-04-02T08:39:29.342Z,101844.94
2023-04-02T08:42:06.094Z,101863.50
2023-04-02T08:45:23.666Z,101855.34
2023-04-02T08:47:56.667Z,101864.56
2023-04-02T08:50:39.535Z,101860.75
2023-04-02T08:53:14.236Z,101884.09
2023-04-02T08:55:55.728Z,101889.34
2023-04-02T08:58:37.789Z,101895.84
2023-04-02T09:01:08.216Z,101907.47
2023-04-02T09:03:52.840Z,101893.00
2023-04-02T09:06:21.972Z,101906.56
2023-04-02T09:08:51.742Z,101917.44
2023-04-02T09:11:21.637Z,101923.91
2023-04-02T09:14:00.680Z,101923.19
2023-04-02T09:16:45.124Z,101927.19
2023-04-02T09:19:26.992Z,101925.69
2023-04-02T09:22:31.719Z,101927.75
2023-04-02T09:25:06.511Z,101927.63
2023-04-02T09:27:36.682Z,101942.50
2023-04-02T09:30:21.722Z,101943.50
2023-04-02T09:32:49.930Z,101952.78
2023-04-02T09:35:36.591Z,101959.16
2023-04-02T09:38:37.515Z,101953.97
2023-04-02T09:41:06.741Z,101965.84
2023-04-02T09:43:38.447Z,101961.19
2023-04-02T09:46:24.400Z,101964.34
2023-04-02T09:48:59.324Z,101958.16
2023-04-02T09:51:29.814Z,101973.94
2023-04-02T09:54:02.502Z,101973.03
2023-04-02T09:56:34.863Z,101978.91
2023-04-02T09:59:06.050Z,101994.06
2023-04-02T10:01:34.197Z,101994.91
2023-04-02T10:04:03.509Z,101998.38
2023-04-02T10:06:31.855Z,101995.47
2023-04-02T10:08:58.664Z,102006.63
2023-04-02T10:11:46.293Z,102002.25
2023-04-02T10:14:24.128Z,102013.00
2023-04-02T10:16:58.052Z,102014.41
2023-04-02T10:19:31.426Z,102025.88
2023-04-02T10:22:00.833Z,102026.06
2023-04-02T10:24:28.776Z,102024.25
2023-04-02T10:27:42.846Z,102035.59
2023-04-02T10:30:10.287Z,102029.03
2023-04-02T10:32:45.954Z,102037.69
2023-04-02T10:35:24.120Z,102043.59
2023-04-02T10:38:02.957Z,102036.97
2023-04-02T10:41:01.541Z,102035.75
2023-04-02T10:43:31.375Z,102035.66
2023-04-02T10:46:12.648Z,102040.13
2023-04-02T10:49:01.000Z,102057.47
2023-04-02T10:51:34.108Z,102057.28
2023-04-02T10:54:10.057Z,102069.31
2023-04-02T10:56:47.790Z,102065.88
2023-04-02T10:59:23.264Z,102082.03
2023-04-02T11:01:52.140Z,102076.69
2023-04-02T11:04:38.315Z,102081.78
2023-04-02T11:07:17.217Z,102088.13
2023-04-02T11:09:48.662Z,102092.53
2023-04-02T11:12:42.039Z,102101.84
2023-04-02T11:15:18.047Z,102105.19
2023-04-02T11:17:45.851Z,102107.78
2023-04-02T11:20:49.748Z,102106.75
2023-04-02T11:23:22.355Z,102122.03
2023-04-02T11:25:49.371Z,102124.13
2023-04-02T11:28:30.834Z,102121.47
2023-04-02T11:30:58.148Z,102112.28
2023-04-02T11:33:38.092Z,102119.22
2023-04-02T11:36:43.978Z,102115.44
2023-04-02T11:39:17.420Z,102124.66
2023-04-02T11:42:01.084Z,102124.59
2023-04-02T11:44:28.039Z,102130.97
2023-04-02T11:47:21.979Z,102133.06
2023-04-02T11:49:55.361Z,102144.03
2023-04-02T11:52:35.131Z,102144.50
2023-04-02T11:55:27.526Z,102158.94
2023-04-02T11:58:22.779Z,102160.50
2023-04-02T12:01:18.717Z,102155.72
2023-04-02T12:04:23.013Z,102164.66
2023-04-02T12:07:12.839Z,102175.84
2023-04-02T12:09:55.153Z,102155.94
2023-04-02T12:12:39.407Z,102175.34
2023-04-02T12:15:27.634Z,102169.47
2023-04-02T12:18:06.240Z,102177.78
2023-04-02T12:20:34.738Z,102173.84
2023-04-02T12:23:02.200Z,102188.72
2023-04-02T12:25:40.022Z,102184.00
2023-04-02T12:28:09.758Z,102177.94
2023-04-02T12:30:37.970Z,102188.00
2023-04-02T12:33:20.362Z,102197.16
2023-04-02T12:35:53.435Z,102193.16
2023-04-02T12:38:24.484Z,102198.94
2023-04-02T12:41:05.157Z,102194.72
2023-04-02T12:43:37.837Z,102207.44
2023-04-02T12:46:06.766Z,102212.03
2023-04-02T12:48:35.526Z,102205.03
2023-04-02T12:51:04.600Z,102207.38
2023-04-02T12:53:40.395Z,102197.16
2023-04-02T12:56:11.155Z,102207.50
2023-04-02T12:58:41.481Z,102213.09
2023-04-02T13:01:27.667Z,102201.59
2023-04-02T13:04:06.164Z,102198.31
2023-04-02T13:06:35.242Z,102203.84
2023-04-02T13:09:05.035Z,102208.34
2023-04-02T13:11:37.257Z,102209.00
2023-04-02T13:14:06.325Z,102201.44
2023-04-02T13:16:36.751Z,102207.00
2023-04-02T13:19:17.434Z,102202.59
2023-04-02T13:21:45.386Z,102203.94
2023-04-02T13:24:21.601Z,102219.44
2023-04-02T13:26:49.824Z,102211.31
2023-04-02T13:29:28.655Z,102209.09
2023-04-02T13:31:59.976Z,102209.66
2023-04-02T13:34:27.500Z,102207.41
2023-04-02T13:36:56.145Z,102221.66
2023-04-02T13:39:24.141Z,102216.34
2023-04-02T13:41:59.607Z,102205.91
2023-04-02T13:44:29.984Z,102213.66
2023-04-02T13:46:57.860Z,102212.31
2023-04-02T13:49:25.425Z,102220.66
2023-04-02T13:51:57.823Z,102219.50
2023-04-02T13:54:37.350Z,102222.28
2023-04-02T13:57:04.323Z,102232.94
2023-04-02T13:59:31.456Z,102225.69
2023-04-02T14:02:06.740Z,102222.28
2023-04-02T14:04:38.863Z,102229.00
2023-04-02T14:07:24.569Z,102227.22
2023-04-02T14:10:12.710Z,102231.16
2023-04-02T14:12:45.446Z,102226.53
2023-04-02T14:15:45.591Z,102230.53
2023-04-02T14:18:30.032Z,102233.13
2023-04-02T14:20:59.568Z,102240.25
2023-04-02T14:23:53.854Z,102237.38
2023-04-02T14:26:49.148Z,102246.19
2023-04-02T14:29:44.913Z,102244.06
2023-04-02T14:32:17.580Z,102244.75
2023-04-02T14:34:52.963Z,102252.25
2023-04-02T14:37:38.409Z,102254.59
2023-04-02T14:40:27.340Z,102252.13
2023-04-02T14:43:07.189Z,102265.81
2023-04-02T14:45:58.570Z,102256.25
2023-04-02T14:48:45.184Z,102271.69
2023-04-02T14:51:12.026Z,102267.72
2023-04-02T14:53:50.567Z,102266.28
2023-04-02T14:56:21.820Z,102280.34
2023-04-02T14:59:07.602Z,102270.09
2023-04-02T15:01:40.746Z,102271.56
2023-04-02T15:04:14.180Z,102259.81
2023-04-02T15:06:46.093Z,102267.78
2023-04-02T15:09:27.396Z,102273.91
2023-04-02T15:11:59.941Z,102282.34
2023-04-02T15:14:48.389Z,102277.41
2023-04-02T15:17:15.318Z,102280.34
2023-04-02T15:19:43.137Z,102273.97
2023-04-02T15:22:28.551Z,102271.94
2023-04-02T15:25:11.756Z,102274.06
2023-04-02T15:27:57.141Z,102280.22
2023-04-02T15:30:29.157Z,102275.00
2023-04-02T15:33:24.451Z,102277.16
2023-04-02T15:36:16.724Z,102273.88
2023-04-02T15:38:57.739Z,102291.00
2023-04-02T15:41:27.503Z,102287.91
2023-04-02T15:44:15.516Z,102290.03
2023-04-02T15:47:10.102Z,102291.72
2023-04-02T15:49:51.867Z,102288.28
2023-04-02T15:52:44.646Z,102304.88
2023-04-02T15:55:25.878Z,102297.88
2023-04-02T15:58:20.879Z,102310.16
2023-04-02T16:01:04.272Z,102317.50
2023-04-02T16:04:00.400Z,102323.22
2023-04-02T16:06:32.545Z,102311.84
2023-04-02T16:09:07.233Z,102317.50
2023-04-02T16:11:34.335Z,102304.84
2023-04-02T16:14:33.181Z,102316.69
2023-04-02T16:17:23.864Z,102324.81
2023-04-02T16:20:28.677Z,102328.50
2023-04-02T16:23:21.042Z,102330.97
2023-04-02T16:25:56.525Z,102329.47
2023-04-02T16:29:00.337Z,102330.09
2023-04-02T16:31:46.040Z,102340.50
2023-04-02T16:34:22.069Z,102334.44
2023-04-02T16:37:13.988Z,102342.47
2023-04-02T16:39:52.792Z,102344.31
2023-04-02T16:42:34.040Z,102349.22
2023-04-02T16:45:19.446Z,102349.84
2023-04-02T16:48:16.215Z,102360.56
2023-04-02T16:51:19.974Z,102354.78
2023-04-02T16:54:05.879Z,102359.66
2023-04-02T16:56:56.401Z,102368.47
2023-04-02T16:59:51.127Z,102360.34
2023-04-02T17:02:43.316Z,102368.25
2023-04-02T17:05:36.092Z,102367.59
2023-04-02T17:08:18.544Z,102374.50
2023-04-02T17:11:01.846Z,102372.03
2023-04-02T17:13:37.426Z,102388.13
2023-04-02T17:16:24.117Z,102387.31
2023-04-02T17:18:59.738Z,102397.84
2023-04-02T17:21:28.416Z,102400.94
2023-04-02T17:24:00.712Z,102403.41
2023-04-02T17:26:31.215Z,102413.44
2023-04-02T17:29:00.565Z,102414.84
2023-04-02T17:31:34.011Z,102419.84
2023-04-02T17:34:08.611Z,102413.13
2023-04-02T17:36:42.258Z,102419.16
2023-04-02T17:39:18.221Z,102420.44
2023-04-02T17:41:50.946Z,102424.47
2023-04-02T17:44:42.411Z,102425.28
2023-04-02T17:47:33.916Z,102438.22
2023-04-02T17:50:23.338Z,102435.22
2023-04-02T17:52:53.243Z,102436.44
2023-04-02T17:55:32.178Z,102440.88
2023-04-02T17:58:51.228Z,102455.72
2023-04-02T18:01:37.111Z,102448.44
2023-04-02T18:04:24.405Z,102456.31
2023-04-02T18:07:03.423Z,102458.31
2023-04-02T18:09:47.248Z,102462.38
2023-04-02T18:12:23.217Z,102461.19
2023-04-02T18:15:22.986Z,102466.78
2023-04-02T18:18:25.331Z,102475.53
2023-04-02T18:21:04.968Z,102486.84
2023-04-02T18:23:59.671Z,102496.38
2023-04-02T18:26:39.223Z,102499.00
2023-04-02T18:29:22.754Z,102502.19
2023-04-02T18:32:33.718Z,102504.81
2023-04-02T18:35:31.574Z,102512.91
2023-04-02T18:38:17.140Z,102519.31
2023-04-02T18:40:53.204Z,102526.81
2023-04-02T18:43:34.382Z,102525.47
2023-04-02T18:46:19.916Z,102537.16
2023-04-02T18:48:59.066Z,102546.75
2023-04-02T18:51:28.330Z,102549.69
2023-04-02T18:54:14.444Z,102553.88
2023-04-02T18:56:42.778Z,102548.44
2023-04-02T18:59:12.279Z,102551.31
2023-04-02T19:01:44.568Z,102561.50
2023-04-02T19:04:17.739Z,102563.53
2023-04-02T19:06:49.012Z,102563.53
2023-04-02T19:09:23.852Z,102564.06
2023-04-02T19:11:53.115Z,102568.63
2023-04-02T19:14:23.645Z,102573.81
2023-04-02T19:16:54.734Z,102577.13
2023-04-02T19:19:28.310Z,102579.78
2023-04-02T19:22:13.580Z,102576.00
2023-04-02T19:25:08.983Z,102580.97
2023-04-02T19:28:13.311Z,102584.47
2023-04-02T19:31:17.451Z,102589.50
2023-04-02T19:33:56.716Z,102591.44
2023-04-02T19:36:58.846Z,102589.41
2023-04-02T19:39:47.086Z,102598.75
2023-04-02T19:42:33.297Z,102596.59
2023-04-02T19:45:00.825Z,102599.28
2023-04-02T19:47:27.459Z,102601.75
2023-04-02T19:49:55.745Z,102600.25
2023-04-02T19:52:22.573Z,102603.44
2023-04-02T19:54:49.451Z,102604.31
2023-04-02T19:57:17.668Z,102609.78
2023-04-02T19:59:44.418Z,102613.03
2023-04-02T20:02:11.213Z,102609.69
2023-04-02T20:04:38.036Z,102618.66
2023-04-02T20:07:05.138Z,102619.06
2023-04-02T20:09:32.213Z,102619.34
2023-04-02T20:11:58.918Z,102613.16
2023-04-02T20:14:25.685Z,102627.38
2023-04-02T20:16:52.553Z,102621.56
2023-04-02T20:19:20.683Z,102619.91
2023-04-02T20:21:47.693Z,102624.50
2023-04-02T20:24:14.481Z,102624.63
2023-04-02T20:26:41.130Z,102624.75
2023-04-02T20:29:07.994Z,102617.78
2023-04-02T20:31:34.761Z,102621.09
2023-04-02T20:34:03.823Z,102628.81
2023-04-02T20:36:31.154Z,102633.88
2023-04-02T20:38:58.674Z,102642.00
2023-04-02T20:41:26.147Z,102644.50
2023-04-02T20:43:53.724Z,102648.22
2023-04-02T20:46:20.782Z,102644.34
2023-04-02T20:48:47.558Z,102646.44
2023-04-02T20:51:15.638Z,102648.19
2023-04-02T20:53:43.173Z,102650.81
2023-04-02T20:56:12.559Z,102659.91
2023-04-02T20:58:40.363Z,102657.84
2023-04-02T21:01:11.969Z,102665.97
2023-04-02T21:03:40.056Z,102665.69
2023-04-02T21:06:13.242Z,102669.53
2023-04-02T21:08:39.904Z,102675.06
2023-04-02T21:11:06.895Z,102678.09
2023-04-02T21:13:38.351Z,102678.75
2023-04-02T21:16:12.302Z,102691.59
2023-04-02T21:18:39.098Z,102688.13
2023-04-02T21:21:06.456Z,102687.53
2023-04-02T21:23:34.164Z,102690.97
2023-04-02T21:26:04.363Z,102690.06
2023-04-02T21:28:31.278Z,102691.84
2023-04-02T21:31:11.929Z,102688.00
2023-04-02T21:33:41.489Z,102694.75
2023-04-02T21:36:11.294Z,102695.84
2023-04-02T21:38:52.002Z,102694.75
2023-04-02T21:41:24.945Z,102696.28
2023-04-02T21:43:54.514Z,102694.97
2023-04-02T21:46:28.062Z,102695.47
2023-04-02T21:48:57.114Z,102696.84
2023-04-02T21:51:26.275Z,102699.31
2023-04-02T21:53:56.344Z,102697.94
2023-04-02T21:56:26.353Z,102695.69
2023-04-02T21:58:53.104Z,102698.16
2023-04-02T22:01:27.249Z,102697.50
2023-04-02T22:03:59.915Z,102698.84
2023-04-02T22:06:28.866Z,102688.09
2023-04-02T22:09:01.606Z,102695.50
2023-04-02T22:11:32.770Z,102693.41
2023-04-02T22:14:00.197Z,102703.59
2023-04-02T22:16:29.833Z,102705.94
2023-04-02T22:18:58.577Z,102722.03
2023-04-02T22:21:25.889Z,102710.72
2023-04-02T22:23:52.936Z,102716.72
2023-04-02T22:26:20.805Z,102721.63
2023-04-02T22:28:47.869Z,102712.41
2023-04-02T22:31:27.556Z,102714.59
2023-04-02T22:33:55.656Z,102717.72
2023-04-02T22:36:23.195Z,102720.34
2023-04-02T22:38:50.544Z,102725.56
2023-04-02T22:41:25.474Z,102723.28
2023-04-02T22:43:52.527Z,102719.28
2023-04-02T22:46:20.055Z,102723.44
2023-04-02T22:48:49.798Z,102720.28
2023-04-02T22:51:18.351Z,102719.53
2023-04-02T22:53:45.838Z,102722.28
2023-04-02T22:56:14.958Z,102723.22
2023-04-02T22:58:42.037Z,102716.66
2023-04-02T23:01:10.181Z,102724.28
2023-04-02T23:03:36.952Z,102724.84
2023-04-02T23:06:07.374Z,102731.53
2023-04-02T23:08:36.187Z,102724.06
2023-04-02T23:11:06.158Z,102728.00
2023-04-02T23:13:33.680Z,102727.66
2023-04-02T23:16:02.300Z,102726.81
2023-04-02T23:18:31.608Z,102725.19
2023-04-02T23:20:58.483Z,102729.59
2023-04-02T23:23:26.254Z,102729.31
2023-04-02T23:26:24.680Z,102724.88
2023-04-02T23:28:51.455Z,102732.94
2023-04-02T23:31:21.359Z,102733.53
2023-04-02T23:33:48.502Z,102738.47
2023-04-02T23:36:22.880Z,102743.56
2023-04-02T23:38:55.431Z,102734.84
2023-04-02T23:41:24.045Z,102738.25
2023-04-02T23:43:51.099Z,102733.66
2023-04-02T23:46:17.873Z,102739.22
2023-04-02T23:48:45.859Z,102730.88
2023-04-02T23:51:13.706Z,102730.69
2023-04-02T23:53:40.523Z,102734.84
2023-04-02T23:56:07.439Z,102733.09
2023-04-02T23:58:34.200Z,102736.34
